Hesperides — EANN — position and weather

sailwx.info

Track history (hours):
 
Tides and Currents Weather Stations Pressure Air Temp Water Temp Dewpoint Dewpoint Depression Visibility Wind Speed Wind Dir Waves Ship Positions

Hesperides

Last reported at 2017-Mar-23 13:04 UTC. Time now 2017-Mar-26 13:08 UTC.
Position N 28°49' W 013°30'.

Length 122 m; draft 6.4 m.

Type: Tanker. MMSI: 224462000.

Date/timePositionNaut miles runAvg speedWind from/ knotsBaromVisibWave heightAir tempDewpointWater temp
2017-Mar-23 13:04N 28°49' W 013°30'4 7.8
2017-Mar-23 12:33N 28°45' W 013°33'19 8.3
2017-Mar-23 10:19N 28°29' W 013°43'23 8.3
2017-Mar-23 07:29N 28°10' W 013°58'8 9.0
2017-Mar-23 06:33N 28°06' W 014°06'10 8.9
2017-Mar-23 05:28N 28°01' W 014°16'8 8.9
2017-Mar-23 04:33N 28°00' W 014°25'9 8.9
2017-Mar-23 03:33N 27°60' W 014°35'9 8.7
2017-Mar-23 02:33N 27°60' W 014°45'9 8.6
2017-Mar-23 01:33N 28°00' W 014°55'8 8.4
2017-Mar-23 00:33N 28°02' W 015°04'8 8.3
2017-Mar-22 23:33N 28°00' W 015°13'8 8.5
2017-Mar-22 22:33N 27°58' W 015°22'0 0.2
2017-Mar-22 21:22N 27°59' W 015°23'0 0.0
2017-Mar-22 20:25N 27°59' W 015°23'0 0.0
2017-Mar-22 19:25N 27°59' W 015°23'0 0.0
2017-Mar-22 18:25N 27°59' W 015°23'0 0.0
2017-Mar-22 17:25N 27°59' W 015°23'0 0.0
2017-Mar-21 10:33N 27°58' W 015°22'10 0.3
2017-Mar-19 19:31N 28°08' W 015°25'  
2017-Mar-15 18:24N 28°31' W 013°45'25 6.3
2017-Mar-15 14:27N 28°09' W 013°60'8 8.9
2017-Mar-15 13:33N 28°06' W 014°08'9 8.7
2017-Mar-15 12:32N 28°02' W 014°17'8 8.3
2017-Mar-15 11:33N 28°01' W 014°26'9 8.7
2017-Mar-15 10:33N 28°02' W 014°36'9 8.8
2017-Mar-15 09:33N 28°04' W 014°45'9 8.9
2017-Mar-15 08:33N 28°08' W 014°54'7 7.2
2017-Mar-15 07:33N 28°15' W 014°58'6 6.2
2017-Mar-15 06:33N 28°20' W 015°01'9 8.8
2017-Mar-15 05:33N 28°21' W 015°11'9 8.7
2017-Mar-15 04:33N 28°22' W 015°21'9 8.8
2017-Mar-15 03:33N 28°23' W 015°31'9 8.5
2017-Mar-15 02:33N 28°24' W 015°41'9 8.6
2017-Mar-15 01:33N 28°24' W 015°50'8 8.5
2017-Mar-15 00:33N 28°25' W 015°60'9 8.7
2017-Mar-14 23:33N 28°27' W 016°10'4 0.2
2017-Mar-13 21:32N 28°29' W 016°14'  
Track history (hours):
 
Tides and Currents Weather Stations Pressure Air Temp Water Temp Dewpoint Dewpoint Depression Visibility Wind Speed Wind Dir Waves Ship Positions

Hesperides

Last reported at 2017-Mar-23 13:04 UTC. Time now 2017-Mar-26 13:08 UTC.
Position N 28°49' W 013°30'.

Length 122 m; draft 6.4 m.

Type: Tanker. MMSI: 224462000.

Date/timePositionNaut miles runAvg speedWind from/ knotsBaromVisibWave heightAir tempDewpointWater temp
2017-Mar-23 13:04N 28°49' W 013°30'4 7.8
2017-Mar-23 12:33N 28°45' W 013°33'19 8.3
2017-Mar-23 10:19N 28°29' W 013°43'23 8.3
2017-Mar-23 07:29N 28°10' W 013°58'8 9.0
2017-Mar-23 06:33N 28°06' W 014°06'10 8.9
2017-Mar-23 05:28N 28°01' W 014°16'8 8.9
2017-Mar-23 04:33N 28°00' W 014°25'9 8.9
2017-Mar-23 03:33N 27°60' W 014°35'9 8.7
2017-Mar-23 02:33N 27°60' W 014°45'9 8.6
2017-Mar-23 01:33N 28°00' W 014°55'8 8.4
2017-Mar-23 00:33N 28°02' W 015°04'8 8.3
2017-Mar-22 23:33N 28°00' W 015°13'8 8.5
2017-Mar-22 22:33N 27°58' W 015°22'0 0.2
2017-Mar-22 21:22N 27°59' W 015°23'0 0.0
2017-Mar-22 20:25N 27°59' W 015°23'0 0.0
2017-Mar-22 19:25N 27°59' W 015°23'0 0.0
2017-Mar-22 18:25N 27°59' W 015°23'0 0.0
2017-Mar-22 17:25N 27°59' W 015°23'0 0.0
2017-Mar-21 10:33N 27°58' W 015°22'10 0.3
2017-Mar-19 19:31N 28°08' W 015°25'  
2017-Mar-15 18:24N 28°31' W 013°45'25 6.3
2017-Mar-15 14:27N 28°09' W 013°60'8 8.9
2017-Mar-15 13:33N 28°06' W 014°08'9 8.7
2017-Mar-15 12:32N 28°02' W 014°17'8 8.3
2017-Mar-15 11:33N 28°01' W 014°26'9 8.7
2017-Mar-15 10:33N 28°02' W 014°36'9 8.8
2017-Mar-15 09:33N 28°04' W 014°45'9 8.9
2017-Mar-15 08:33N 28°08' W 014°54'7 7.2
2017-Mar-15 07:33N 28°15' W 014°58'6 6.2
2017-Mar-15 06:33N 28°20' W 015°01'9 8.8
2017-Mar-15 05:33N 28°21' W 015°11'9 8.7
2017-Mar-15 04:33N 28°22' W 015°21'9 8.8
2017-Mar-15 03:33N 28°23' W 015°31'9 8.5
2017-Mar-15 02:33N 28°24' W 015°41'9 8.6
2017-Mar-15 01:33N 28°24' W 015°50'8 8.5
2017-Mar-15 00:33N 28°25' W 015°60'9 8.7
2017-Mar-14 23:33N 28°27' W 016°10'4 0.2
2017-Mar-13 21:32N 28°29' W 016°14'  

Dump ship's entire track history